Terminal Aerodrome Forecast
Issued by NWS

Home | Current Version | Previous Version | Text Only | Print | Product List | Glossary On
Versions: 1 2 3 4 5 6 7 8 9 10 11 12 13 14 15 16 17 18 19 20 21 22 23 24
631
FTAK31 PANC 112336
TAFAHO
TAF
PAHO 112336Z 1200/1224 06011KT P6SM -SHRA SCT020 OVC040
      WS020/12040KT
     FM120600 05008KT P6SM VCSH SCT030 OVC050=

USA.gov is the U.S. government's official web portal to all federal, state and local government web resources and services.